sensor_id;sensor_type;location;lat;lon;timestamp;temperature;humidity
78536;SHT31;67829;51.968;5.684;2023-02-28T00:01:34;4.3;59.0
78536;SHT31;67829;51.968;5.684;2023-02-28T00:04:03;4.3;59.1
78536;SHT31;67829;51.968;5.684;2023-02-28T00:06:32;4.3;59.0
78536;SHT31;67829;51.968;5.684;2023-02-28T00:09:00;4.3;59.0
78536;SHT31;67829;51.968;5.684;2023-02-28T00:11:31;4.3;59.0
78536;SHT31;67829;51.968;5.684;2023-02-28T00:13:59;4.3;58.8
78536;SHT31;67829;51.968;5.684;2023-02-28T00:16:28;4.4;58.7
78536;SHT31;67829;51.968;5.684;2023-02-28T00:18:56;4.4;58.6
78536;SHT31;67829;51.968;5.684;2023-02-28T00:21:24;4.4;58.5
78536;SHT31;67829;51.968;5.684;2023-02-28T00:23:55;4.4;58.4
78536;SHT31;67829;51.968;5.684;2023-02-28T00:26:23;4.5;58.6
78536;SHT31;67829;51.968;5.684;2023-02-28T00:28:53;4.5;58.7
78536;SHT31;67829;51.968;5.684;2023-02-28T00:31:21;4.5;58.8
78536;SHT31;67829;51.968;5.684;2023-02-28T00:33:50;4.6;58.7
78536;SHT31;67829;51.968;5.684;2023-02-28T00:36:19;4.6;58.7
78536;SHT31;67829;51.968;5.684;2023-02-28T00:38:47;4.6;58.3
78536;SHT31;67829;51.968;5.684;2023-02-28T00:41:16;4.6;58.2
78536;SHT31;67829;51.968;5.684;2023-02-28T00:43:45;4.6;58.2
78536;SHT31;67829;51.968;5.684;2023-02-28T00:46:13;4.7;58.2
78536;SHT31;67829;51.968;5.684;2023-02-28T00:48:41;4.7;57.9
78536;SHT31;67829;51.968;5.684;2023-02-28T00:51:10;4.7;57.9
78536;SHT31;67829;51.968;5.684;2023-02-28T00:53:39;4.7;57.6
78536;SHT31;67829;51.968;5.684;2023-02-28T00:56:07;4.8;57.9
78536;SHT31;67829;51.968;5.684;2023-02-28T00:58:36;4.8;58.0
78536;SHT31;67829;51.968;5.684;2023-02-28T01:01:05;4.8;57.7
78536;SHT31;67829;51.968;5.684;2023-02-28T01:03:33;4.8;57.2
78536;SHT31;67829;51.968;5.684;2023-02-28T01:06:03;4.8;57.3
78536;SHT31;67829;51.968;5.684;2023-02-28T01:08:31;4.9;57.5
78536;SHT31;67829;51.968;5.684;2023-02-28T01:11:11;4.9;57.2
78536;SHT31;67829;51.968;5.684;2023-02-28T01:13:40;4.9;57.0
78536;SHT31;67829;51.968;5.684;2023-02-28T01:16:09;4.9;56.7
78536;SHT31;67829;51.968;5.684;2023-02-28T01:18:39;4.9;57.0
78536;SHT31;67829;51.968;5.684;2023-02-28T01:21:10;4.9;57.0
78536;SHT31;67829;51.968;5.684;2023-02-28T01:23:41;4.9;57.2
78536;SHT31;67829;51.968;5.684;2023-02-28T01:26:13;4.9;57.3
78536;SHT31;67829;51.968;5.684;2023-02-28T01:28:42;4.9;57.5
78536;SHT31;67829;51.968;5.684;2023-02-28T01:31:13;4.9;57.5
78536;SHT31;67829;51.968;5.684;2023-02-28T01:33:42;4.9;57.6
78536;SHT31;67829;51.968;5.684;2023-02-28T01:36:13;4.9;57.6
78536;SHT31;67829;51.968;5.684;2023-02-28T01:38:42;4.9;57.6
78536;SHT31;67829;51.968;5.684;2023-02-28T01:41:17;4.9;57.6
78536;SHT31;67829;51.968;5.684;2023-02-28T01:44:06;4.9;57.5
78536;SHT31;67829;51.968;5.684;2023-02-28T01:46:36;4.9;57.5
78536;SHT31;67829;51.968;5.684;2023-02-28T01:49:09;4.9;57.6
78536;SHT31;67829;51.968;5.684;2023-02-28T01:51:42;4.9;57.6
78536;SHT31;67829;51.968;5.684;2023-02-28T01:54:22;4.9;57.7
78536;SHT31;67829;51.968;5.684;2023-02-28T01:56:55;4.9;57.8
78536;SHT31;67829;51.968;5.684;2023-02-28T01:59:35;5.0;57.6
78536;SHT31;67829;51.968;5.684;2023-02-28T02:02:04;5.0;57.7
78536;SHT31;67829;51.968;5.684;2023-02-28T02:04:38;5.0;57.7
78536;SHT31;67829;51.968;5.684;2023-02-28T02:07:11;5.0;57.8
78536;SHT31;67829;51.968;5.684;2023-02-28T02:09:41;5.0;57.8
78536;SHT31;67829;51.968;5.684;2023-02-28T02:12:25;5.0;57.6
78536;SHT31;67829;51.968;5.684;2023-02-28T02:15:03;5.0;57.4
78536;SHT31;67829;51.968;5.684;2023-02-28T02:17:38;5.0;57.5
78536;SHT31;67829;51.968;5.684;2023-02-28T02:20:18;5.0;57.5
78536;SHT31;67829;51.968;5.684;2023-02-28T02:27:42;5.0;57.3
78536;SHT31;67829;51.968;5.684;2023-02-28T02:33:27;5.0;57.1
78536;SHT31;67829;51.968;5.684;2023-02-28T02:36:02;5.0;57.2
78536;SHT31;67829;51.968;5.684;2023-02-28T02:38:39;5.0;57.1
78536;SHT31;67829;51.968;5.684;2023-02-28T02:41:15;5.1;56.9
78536;SHT31;67829;51.968;5.684;2023-02-28T02:43:49;5.1;57.1
78536;SHT31;67829;51.968;5.684;2023-02-28T02:46:26;5.1;57.0
78536;SHT31;67829;51.968;5.684;2023-02-28T02:49:00;5.1;57.1
78536;SHT31;67829;51.968;5.684;2023-02-28T02:51:32;5.1;57.2
78536;SHT31;67829;51.968;5.684;2023-02-28T02:54:06;5.1;57.2
78536;SHT31;67829;51.968;5.684;2023-02-28T02:56:41;5.1;57.1
78536;SHT31;67829;51.968;5.684;2023-02-28T02:59:16;5.1;57.3
78536;SHT31;67829;51.968;5.684;2023-02-28T03:01:50;5.1;57.2
78536;SHT31;67829;51.968;5.684;2023-02-28T03:04:22;5.1;57.1
78536;SHT31;67829;51.968;5.684;2023-02-28T03:06:52;5.1;57.0
78536;SHT31;67829;51.968;5.684;2023-02-28T03:09:21;5.2;57.1
78536;SHT31;67829;51.968;5.684;2023-02-28T03:11:52;5.2;56.9
78536;SHT31;67829;51.968;5.684;2023-02-28T03:14:40;5.2;56.9
78536;SHT31;67829;51.968;5.684;2023-02-28T03:17:27;5.2;57.1
78536;SHT31;67829;51.968;5.684;2023-02-28T03:20:04;5.2;57.2
78536;SHT31;67829;51.968;5.684;2023-02-28T03:22:46;5.2;57.1
78536;SHT31;67829;51.968;5.684;2023-02-28T03:25:21;5.1;57.0
78536;SHT31;67829;51.968;5.684;2023-02-28T03:28:03;5.1;57.2
78536;SHT31;67829;51.968;5.684;2023-02-28T03:30:39;5.1;57.3
78536;SHT31;67829;51.968;5.684;2023-02-28T03:33:14;5.1;57.3
78536;SHT31;67829;51.968;5.684;2023-02-28T03:35:47;5.1;57.2
78536;SHT31;67829;51.968;5.684;2023-02-28T03:38:22;5.1;56.9
78536;SHT31;67829;51.968;5.684;2023-02-28T03:41:01;5.1;57.0
78536;SHT31;67829;51.968;5.684;2023-02-28T03:43:34;5.1;56.7
78536;SHT31;67829;51.968;5.684;2023-02-28T03:46:10;5.1;56.2
78536;SHT31;67829;51.968;5.684;2023-02-28T03:48:45;5.1;56.0
78536;SHT31;67829;51.968;5.684;2023-02-28T03:51:21;5.1;54.0
78536;SHT31;67829;51.968;5.684;2023-02-28T03:53:54;5.1;53.5
78536;SHT31;67829;51.968;5.684;2023-02-28T03:56:32;5.1;51.4
78536;SHT31;67829;51.968;5.684;2023-02-28T03:59:07;5.1;52.1
78536;SHT31;67829;51.968;5.684;2023-02-28T04:01:42;5.1;52.4
78536;SHT31;67829;51.968;5.684;2023-02-28T04:04:13;5.2;51.9
78536;SHT31;67829;51.968;5.684;2023-02-28T04:06:44;5.2;52.0
78536;SHT31;67829;51.968;5.684;2023-02-28T04:09:14;5.2;51.4
78536;SHT31;67829;51.968;5.684;2023-02-28T04:11:44;5.2;50.4
78536;SHT31;67829;51.968;5.684;2023-02-28T04:14:14;5.2;50.8
78536;SHT31;67829;51.968;5.684;2023-02-28T04:16:42;5.2;51.4
78536;SHT31;67829;51.968;5.684;2023-02-28T04:19:14;5.2;51.8
78536;SHT31;67829;51.968;5.684;2023-02-28T04:21:45;5.1;52.1
78536;SHT31;67829;51.968;5.684;2023-02-28T04:24:16;5.1;51.6
78536;SHT31;67829;51.968;5.684;2023-02-28T04:26:47;5.1;51.9
78536;SHT31;67829;51.968;5.684;2023-02-28T04:29:19;5.1;52.1
78536;SHT31;67829;51.968;5.684;2023-02-28T04:31:48;5.1;52.6
78536;SHT31;67829;51.968;5.684;2023-02-28T04:34:16;5.1;52.3
78536;SHT31;67829;51.968;5.684;2023-02-28T04:36:47;5.1;52.9
78536;SHT31;67829;51.968;5.684;2023-02-28T04:39:17;5.1;53.0
78536;SHT31;67829;51.968;5.684;2023-02-28T04:41:46;5.0;53.4
78536;SHT31;67829;51.968;5.684;2023-02-28T04:44:15;5.0;53.6
78536;SHT31;67829;51.968;5.684;2023-02-28T04:46:44;5.0;53.5
78536;SHT31;67829;51.968;5.684;2023-02-28T04:49:13;5.0;53.8
78536;SHT31;67829;51.968;5.684;2023-02-28T04:51:43;5.0;54.0
78536;SHT31;67829;51.968;5.684;2023-02-28T04:54:12;5.0;54.0
78536;SHT31;67829;51.968;5.684;2023-02-28T04:56:42;5.0;54.4
78536;SHT31;67829;51.968;5.684;2023-02-28T04:59:10;5.0;54.5
78536;SHT31;67829;51.968;5.684;2023-02-28T05:01:39;5.0;54.5
78536;SHT31;67829;51.968;5.684;2023-02-28T05:04:08;5.0;54.7
78536;SHT31;67829;51.968;5.684;2023-02-28T05:06:37;5.0;54.8
78536;SHT31;67829;51.968;5.684;2023-02-28T05:09:06;5.0;54.9
78536;SHT31;67829;51.968;5.684;2023-02-28T05:11:35;5.0;54.5
78536;SHT31;67829;51.968;5.684;2023-02-28T05:14:09;5.0;54.1
78536;SHT31;67829;51.968;5.684;2023-02-28T05:16:40;5.0;54.3
78536;SHT31;67829;51.968;5.684;2023-02-28T05:19:09;5.0;54.3
78536;SHT31;67829;51.968;5.684;2023-02-28T05:21:40;5.0;53.8
78536;SHT31;67829;51.968;5.684;2023-02-28T05:24:11;5.1;53.7
78536;SHT31;67829;51.968;5.684;2023-02-28T05:26:41;5.1;53.7
78536;SHT31;67829;51.968;5.684;2023-02-28T05:29:10;5.1;53.5
78536;SHT31;67829;51.968;5.684;2023-02-28T05:31:39;5.1;53.5
78536;SHT31;67829;51.968;5.684;2023-02-28T05:34:08;5.1;53.6
78536;SHT31;67829;51.968;5.684;2023-02-28T05:36:39;5.1;53.6
78536;SHT31;67829;51.968;5.684;2023-02-28T05:39:08;5.1;53.5
78536;SHT31;67829;51.968;5.684;2023-02-28T05:41:41;5.1;53.6
78536;SHT31;67829;51.968;5.684;2023-02-28T05:44:11;5.1;53.5
78536;SHT31;67829;51.968;5.684;2023-02-28T05:46:39;5.1;53.6
78536;SHT31;67829;51.968;5.684;2023-02-28T05:49:08;5.1;53.2
78536;SHT31;67829;51.968;5.684;2023-02-28T05:51:37;5.1;53.5
78536;SHT31;67829;51.968;5.684;2023-02-28T05:54:07;5.1;53.1
78536;SHT31;67829;51.968;5.684;2023-02-28T05:56:37;5.1;53.0
78536;SHT31;67829;51.968;5.684;2023-02-28T05:59:07;5.1;53.3
78536;SHT31;67829;51.968;5.684;2023-02-28T06:01:38;5.1;53.1
78536;SHT31;67829;51.968;5.684;2023-02-28T06:04:09;5.1;52.0
78536;SHT31;67829;51.968;5.684;2023-02-28T06:06:42;5.1;52.2
78536;SHT31;67829;51.968;5.684;2023-02-28T06:09:11;5.2;52.0
78536;SHT31;67829;51.968;5.684;2023-02-28T06:11:40;5.2;51.7
78536;SHT31;67829;51.968;5.684;2023-02-28T06:14:14;5.2;51.1
78536;SHT31;67829;51.968;5.684;2023-02-28T06:16:44;5.2;51.2
78536;SHT31;67829;51.968;5.684;2023-02-28T06:19:12;5.2;51.6
78536;SHT31;67829;51.968;5.684;2023-02-28T06:21:41;5.2;51.6
78536;SHT31;67829;51.968;5.684;2023-02-28T06:24:10;5.2;51.7
78536;SHT31;67829;51.968;5.684;2023-02-28T06:26:41;5.2;51.6
78536;SHT31;67829;51.968;5.684;2023-02-28T06:29:09;5.2;51.9
78536;SHT31;67829;51.968;5.684;2023-02-28T06:31:38;5.2;52.1
78536;SHT31;67829;51.968;5.684;2023-02-28T06:34:06;5.2;52.1
78536;SHT31;67829;51.968;5.684;2023-02-28T06:36:35;5.2;52.3
78536;SHT31;67829;51.968;5.684;2023-02-28T06:39:04;5.2;52.5
78536;SHT31;67829;51.968;5.684;2023-02-28T06:41:33;5.2;52.0
78536;SHT31;67829;51.968;5.684;2023-02-28T06:44:04;5.2;52.2
78536;SHT31;67829;51.968;5.684;2023-02-28T06:46:33;5.2;52.4
78536;SHT31;67829;51.968;5.684;2023-02-28T06:49:02;5.2;52.4
78536;SHT31;67829;51.968;5.684;2023-02-28T06:51:33;5.2;52.6
78536;SHT31;67829;51.968;5.684;2023-02-28T06:54:01;5.2;52.5
78536;SHT31;67829;51.968;5.684;2023-02-28T06:56:32;5.2;52.7
78536;SHT31;67829;51.968;5.684;2023-02-28T06:59:01;5.2;53.0
78536;SHT31;67829;51.968;5.684;2023-02-28T07:01:30;5.2;53.0
78536;SHT31;67829;51.968;5.684;2023-02-28T07:04:00;5.2;53.2
78536;SHT31;67829;51.968;5.684;2023-02-28T07:06:29;5.2;52.9
78536;SHT31;67829;51.968;5.684;2023-02-28T07:09:00;5.2;53.3
78536;SHT31;67829;51.968;5.684;2023-02-28T07:11:31;5.2;53.2
78536;SHT31;67829;51.968;5.684;2023-02-28T07:13:59;5.2;52.7
78536;SHT31;67829;51.968;5.684;2023-02-28T07:16:28;5.2;52.7
78536;SHT31;67829;51.968;5.684;2023-02-28T07:18:56;5.2;52.4
78536;SHT31;67829;51.968;5.684;2023-02-28T07:21:25;5.2;52.7
78536;SHT31;67829;51.968;5.684;2023-02-28T07:23:55;5.2;53.3
78536;SHT31;67829;51.968;5.684;2023-02-28T07:26:25;5.2;53.5
78536;SHT31;67829;51.968;5.684;2023-02-28T07:28:53;5.2;53.2
78536;SHT31;67829;51.968;5.684;2023-02-28T07:31:22;5.2;53.4
78536;SHT31;67829;51.968;5.684;2023-02-28T07:33:50;5.2;53.4
78536;SHT31;67829;51.968;5.684;2023-02-28T07:36:22;5.2;53.3
78536;SHT31;67829;51.968;5.684;2023-02-28T07:38:50;5.3;53.0
78536;SHT31;67829;51.968;5.684;2023-02-28T07:41:21;5.3;52.6
78536;SHT31;67829;51.968;5.684;2023-02-28T07:43:53;5.3;53.1
78536;SHT31;67829;51.968;5.684;2023-02-28T07:46:22;5.4;52.6
78536;SHT31;67829;51.968;5.684;2023-02-28T07:48:50;5.4;52.5
78536;SHT31;67829;51.968;5.684;2023-02-28T07:51:21;5.4;52.2
78536;SHT31;67829;51.968;5.684;2023-02-28T07:53:50;5.5;52.5
78536;SHT31;67829;51.968;5.684;2023-02-28T07:56:21;5.5;50.6
78536;SHT31;67829;51.968;5.684;2023-02-28T07:58:49;5.5;50.4
78536;SHT31;67829;51.968;5.684;2023-02-28T08:01:18;5.6;49.8
78536;SHT31;67829;51.968;5.684;2023-02-28T08:03:47;5.6;50.2
78536;SHT31;67829;51.968;5.684;2023-02-28T08:06:21;5.7;46.9
78536;SHT31;67829;51.968;5.684;2023-02-28T08:08:50;5.7;45.3
78536;SHT31;67829;51.968;5.684;2023-02-28T08:11:19;5.8;43.3
78536;SHT31;67829;51.968;5.684;2023-02-28T08:13:47;5.9;42.1
78536;SHT31;67829;51.968;5.684;2023-02-28T08:16:17;5.9;40.8
78536;SHT31;67829;51.968;5.684;2023-02-28T08:18:48;6.0;40.9
78536;SHT31;67829;51.968;5.684;2023-02-28T08:21:19;6.0;40.0
78536;SHT31;67829;51.968;5.684;2023-02-28T08:23:49;6.1;39.3
78536;SHT31;67829;51.968;5.684;2023-02-28T08:26:19;6.1;39.9
78536;SHT31;67829;51.968;5.684;2023-02-28T08:28:48;6.2;40.4
78536;SHT31;67829;51.968;5.684;2023-02-28T08:31:18;6.2;40.3
78536;SHT31;67829;51.968;5.684;2023-02-28T08:33:47;6.2;39.8
78536;SHT31;67829;51.968;5.684;2023-02-28T08:36:19;6.3;39.5
78536;SHT31;67829;51.968;5.684;2023-02-28T08:38:48;6.3;39.4
78536;SHT31;67829;51.968;5.684;2023-02-28T08:41:16;6.4;40.2
78536;SHT31;67829;51.968;5.684;2023-02-28T08:43:45;6.4;40.2
78536;SHT31;67829;51.968;5.684;2023-02-28T08:46:14;6.4;40.1
78536;SHT31;67829;51.968;5.684;2023-02-28T08:48:44;6.5;40.0
78536;SHT31;67829;51.968;5.684;2023-02-28T08:51:15;6.5;38.7
78536;SHT31;67829;51.968;5.684;2023-02-28T08:53:47;6.6;38.7
78536;SHT31;67829;51.968;5.684;2023-02-28T08:56:17;6.6;38.3
78536;SHT31;67829;51.968;5.684;2023-02-28T08:58:47;6.6;39.3
78536;SHT31;67829;51.968;5.684;2023-02-28T09:01:18;6.6;39.0
78536;SHT31;67829;51.968;5.684;2023-02-28T09:03:49;6.6;38.6
78536;SHT31;67829;51.968;5.684;2023-02-28T09:06:20;6.7;37.1
78536;SHT31;67829;51.968;5.684;2023-02-28T09:08:50;6.7;36.1
78536;SHT31;67829;51.968;5.684;2023-02-28T09:11:19;6.6;36.6
78536;SHT31;67829;51.968;5.684;2023-02-28T09:13:48;6.6;36.4
78536;SHT31;67829;51.968;5.684;2023-02-28T09:16:19;6.6;35.1
78536;SHT31;67829;51.968;5.684;2023-02-28T09:18:48;6.6;36.1
78536;SHT31;67829;51.968;5.684;2023-02-28T09:21:18;6.6;34.8
78536;SHT31;67829;51.968;5.684;2023-02-28T09:23:49;6.6;34.9
78536;SHT31;67829;51.968;5.684;2023-02-28T09:26:20;6.6;34.1
78536;SHT31;67829;51.968;5.684;2023-02-28T09:28:50;6.6;35.2
78536;SHT31;67829;51.968;5.684;2023-02-28T09:31:21;6.6;33.9
78536;SHT31;67829;51.968;5.684;2023-02-28T09:33:55;6.5;33.8
78536;SHT31;67829;51.968;5.684;2023-02-28T09:36:25;6.5;33.7
78536;SHT31;67829;51.968;5.684;2023-02-28T09:38:56;6.5;34.4
78536;SHT31;67829;51.968;5.684;2023-02-28T09:41:26;6.5;34.2
78536;SHT31;67829;51.968;5.684;2023-02-28T09:44:00;6.5;35.3
78536;SHT31;67829;51.968;5.684;2023-02-28T09:46:35;6.5;35.1
78536;SHT31;67829;51.968;5.684;2023-02-28T09:49:12;6.5;35.0
78536;SHT31;67829;51.968;5.684;2023-02-28T09:51:48;6.5;34.4
78536;SHT31;67829;51.968;5.684;2023-02-28T09:54:20;6.5;35.2
78536;SHT31;67829;51.968;5.684;2023-02-28T09:56:52;6.5;34.5
78536;SHT31;67829;51.968;5.684;2023-02-28T09:59:38;6.5;33.2
78536;SHT31;67829;51.968;5.684;2023-02-28T10:02:24;6.5;34.8
78536;SHT31;67829;51.968;5.684;2023-02-28T10:04:59;6.5;34.3
78536;SHT31;67829;51.968;5.684;2023-02-28T10:07:47;6.6;34.0
78536;SHT31;67829;51.968;5.684;2023-02-28T10:10:23;6.6;34.7
78536;SHT31;67829;51.968;5.684;2023-02-28T10:12:56;6.6;34.7
78536;SHT31;67829;51.968;5.684;2023-02-28T10:15:30;6.6;33.9
78536;SHT31;67829;51.968;5.684;2023-02-28T10:18:02;6.7;33.2
78536;SHT31;67829;51.968;5.684;2023-02-28T10:20:34;6.7;33.3
78536;SHT31;67829;51.968;5.684;2023-02-28T10:23:14;6.7;33.1
78536;SHT31;67829;51.968;5.684;2023-02-28T10:25:53;6.7;34.0
78536;SHT31;67829;51.968;5.684;2023-02-28T10:28:24;6.7;35.1
78536;SHT31;67829;51.968;5.684;2023-02-28T10:30:55;6.7;35.1
78536;SHT31;67829;51.968;5.684;2023-02-28T10:33:29;6.8;34.9
78536;SHT31;67829;51.968;5.684;2023-02-28T10:35:59;6.8;35.4
78536;SHT31;67829;51.968;5.684;2023-02-28T10:38:33;6.9;34.3
78536;SHT31;67829;51.968;5.684;2023-02-28T10:41:09;6.9;35.0
78536;SHT31;67829;51.968;5.684;2023-02-28T10:43:39;6.9;34.9
78536;SHT31;67829;51.968;5.684;2023-02-28T10:46:14;7.0;34.9
78536;SHT31;67829;51.968;5.684;2023-02-28T10:49:02;7.0;34.6
78536;SHT31;67829;51.968;5.684;2023-02-28T10:51:37;7.0;34.9
78536;SHT31;67829;51.968;5.684;2023-02-28T10:54:20;7.1;35.4
78536;SHT31;67829;51.968;5.684;2023-02-28T10:57:08;7.1;34.8
78536;SHT31;67829;51.968;5.684;2023-02-28T10:59:41;7.1;34.0
78536;SHT31;67829;51.968;5.684;2023-02-28T11:02:30;7.2;34.3
78536;SHT31;67829;51.968;5.684;2023-02-28T11:05:00;7.2;34.0
78536;SHT31;67829;51.968;5.684;2023-02-28T11:07:28;7.2;33.1
78536;SHT31;67829;51.968;5.684;2023-02-28T11:09:58;7.2;34.2
78536;SHT31;67829;51.968;5.684;2023-02-28T11:12:32;7.2;34.1
78536;SHT31;67829;51.968;5.684;2023-02-28T11:15:14;7.2;34.0
78536;SHT31;67829;51.968;5.684;2023-02-28T11:17:39;7.3;33.8
78536;SHT31;67829;51.968;5.684;2023-02-28T11:20:20;7.3;34.1
78536;SHT31;67829;51.968;5.684;2023-02-28T11:22:52;7.3;34.9
78536;SHT31;67829;51.968;5.684;2023-02-28T11:25:24;7.3;34.8
78536;SHT31;67829;51.968;5.684;2023-02-28T11:27:55;7.3;33.8
78536;SHT31;67829;51.968;5.684;2023-02-28T11:30:32;7.3;34.4
78536;SHT31;67829;51.968;5.684;2023-02-28T11:33:20;7.3;33.8
78536;SHT31;67829;51.968;5.684;2023-02-28T11:35:50;7.4;34.3
78536;SHT31;67829;51.968;5.684;2023-02-28T11:38:19;7.4;34.8
78536;SHT31;67829;51.968;5.684;2023-02-28T11:41:00;7.4;34.3
78536;SHT31;67829;51.968;5.684;2023-02-28T11:43:43;7.4;34.0
78536;SHT31;67829;51.968;5.684;2023-02-28T11:46:25;7.4;35.1
78536;SHT31;67829;51.968;5.684;2023-02-28T11:49:01;7.4;34.8
78536;SHT31;67829;51.968;5.684;2023-02-28T11:51:35;7.5;33.9
78536;SHT31;67829;51.968;5.684;2023-02-28T11:54:40;7.5;34.2
78536;SHT31;67829;51.968;5.684;2023-02-28T11:57:28;7.5;34.7
78536;SHT31;67829;51.968;5.684;2023-02-28T12:00:11;7.5;33.5
78536;SHT31;67829;51.968;5.684;2023-02-28T12:02:56;7.6;34.5
78536;SHT31;67829;51.968;5.684;2023-02-28T12:05:37;7.6;34.3
78536;SHT31;67829;51.968;5.684;2023-02-28T12:08:22;7.6;33.3
78536;SHT31;67829;51.968;5.684;2023-02-28T12:11:01;7.7;33.5
78536;SHT31;67829;51.968;5.684;2023-02-28T12:13:41;7.7;32.8
78536;SHT31;67829;51.968;5.684;2023-02-28T12:16:38;7.7;33.0
78536;SHT31;67829;51.968;5.684;2023-02-28T12:19:18;7.7;33.0
78536;SHT31;67829;51.968;5.684;2023-02-28T12:22:12;7.7;33.2
78536;SHT31;67829;51.968;5.684;2023-02-28T12:25:57;7.7;32.7
78536;SHT31;67829;51.968;5.684;2023-02-28T12:28:34;7.8;32.3
78536;SHT31;67829;51.968;5.684;2023-02-28T12:31:13;7.8;32.0
78536;SHT31;67829;51.968;5.684;2023-02-28T12:33:47;7.8;32.3
78536;SHT31;67829;51.968;5.684;2023-02-28T12:36:20;7.8;31.6
78536;SHT31;67829;51.968;5.684;2023-02-28T12:38:54;7.8;32.0
78536;SHT31;67829;51.968;5.684;2023-02-28T12:41:31;7.8;32.9
78536;SHT31;67829;51.968;5.684;2023-02-28T12:44:07;7.8;32.9
78536;SHT31;67829;51.968;5.684;2023-02-28T12:46:42;7.8;32.4
78536;SHT31;67829;51.968;5.684;2023-02-28T12:49:17;7.8;31.9
78536;SHT31;67829;51.968;5.684;2023-02-28T12:51:48;7.8;32.2
78536;SHT31;67829;51.968;5.684;2023-02-28T12:54:23;7.9;32.3
78536;SHT31;67829;51.968;5.684;2023-02-28T12:57:05;7.9;32.7
78536;SHT31;67829;51.968;5.684;2023-02-28T12:59:40;7.9;32.5
78536;SHT31;67829;51.968;5.684;2023-02-28T13:03:09;7.9;31.1
78536;SHT31;67829;51.968;5.684;2023-02-28T13:06:01;7.9;30.6
78536;SHT31;67829;51.968;5.684;2023-02-28T13:08:51;7.9;30.9
78536;SHT31;67829;51.968;5.684;2023-02-28T13:11:29;8.0;31.5
78536;SHT31;67829;51.968;5.684;2023-02-28T13:14:03;8.0;31.8
78536;SHT31;67829;51.968;5.684;2023-02-28T13:17:34;8.0;31.4
78536;SHT31;67829;51.968;5.684;2023-02-28T13:20:03;8.0;31.3
78536;SHT31;67829;51.968;5.684;2023-02-28T13:22:40;8.0;32.6
78536;SHT31;67829;51.968;5.684;2023-02-28T13:29:04;8.1;32.0
78536;SHT31;67829;51.968;5.684;2023-02-28T13:32:25;8.2;31.5
78536;SHT31;67829;51.968;5.684;2023-02-28T13:35:15;8.3;30.5
78536;SHT31;67829;51.968;5.684;2023-02-28T13:37:48;8.3;31.9
78536;SHT31;67829;51.968;5.684;2023-02-28T13:40:33;8.3;31.3
78536;SHT31;67829;51.968;5.684;2023-02-28T13:43:07;8.3;31.6
78536;SHT31;67829;51.968;5.684;2023-02-28T13:45:38;8.4;31.8
78536;SHT31;67829;51.968;5.684;2023-02-28T13:48:24;8.4;31.0
78536;SHT31;67829;51.968;5.684;2023-02-28T13:50:53;8.4;31.4
78536;SHT31;67829;51.968;5.684;2023-02-28T13:53:59;8.4;31.3
78536;SHT31;67829;51.968;5.684;2023-02-28T13:56:35;8.4;31.5
78536;SHT31;67829;51.968;5.684;2023-02-28T13:59:19;8.5;30.4
78536;SHT31;67829;51.968;5.684;2023-02-28T14:01:57;8.5;30.7
78536;SHT31;67829;51.968;5.684;2023-02-28T14:05:01;8.5;29.6
78536;SHT31;67829;51.968;5.684;2023-02-28T14:07:37;8.5;30.4
78536;SHT31;67829;51.968;5.684;2023-02-28T14:10:22;8.5;31.0
78536;SHT31;67829;51.968;5.684;2023-02-28T14:13:00;8.5;30.3
78536;SHT31;67829;51.968;5.684;2023-02-28T14:17:44;8.6;30.4
78536;SHT31;67829;51.968;5.684;2023-02-28T14:20:17;8.6;30.1
78536;SHT31;67829;51.968;5.684;2023-02-28T14:22:56;8.6;29.6
78536;SHT31;67829;51.968;5.684;2023-02-28T14:25:35;8.6;30.4
78536;SHT31;67829;51.968;5.684;2023-02-28T14:28:17;8.6;30.2
78536;SHT31;67829;51.968;5.684;2023-02-28T14:30:57;8.6;30.9
78536;SHT31;67829;51.968;5.684;2023-02-28T14:33:38;8.6;30.4
78536;SHT31;67829;51.968;5.684;2023-02-28T14:36:17;8.6;31.0
78536;SHT31;67829;51.968;5.684;2023-02-28T14:38:50;8.6;30.7
78536;SHT31;67829;51.968;5.684;2023-02-28T14:41:26;8.6;30.7
78536;SHT31;67829;51.968;5.684;2023-02-28T14:43:59;8.6;31.1
78536;SHT31;67829;51.968;5.684;2023-02-28T14:46:36;8.6;30.5
78536;SHT31;67829;51.968;5.684;2023-02-28T14:49:11;8.6;31.0
78536;SHT31;67829;51.968;5.684;2023-02-28T14:51:40;8.6;30.5
78536;SHT31;67829;51.968;5.684;2023-02-28T14:54:14;8.6;30.6
78536;SHT31;67829;51.968;5.684;2023-02-28T14:56:50;8.6;30.2
78536;SHT31;67829;51.968;5.684;2023-02-28T14:59:28;8.6;30.0
78536;SHT31;67829;51.968;5.684;2023-02-28T15:02:22;8.6;30.1
78536;SHT31;67829;51.968;5.684;2023-02-28T15:04:55;8.6;31.0
78536;SHT31;67829;51.968;5.684;2023-02-28T15:07:25;8.6;32.0
78536;SHT31;67829;51.968;5.684;2023-02-28T15:10:16;8.6;32.5
78536;SHT31;67829;51.968;5.684;2023-02-28T15:12:51;8.6;30.9
78536;SHT31;67829;51.968;5.684;2023-02-28T15:15:21;8.6;30.5
78536;SHT31;67829;51.968;5.684;2023-02-28T15:17:56;8.6;30.0
78536;SHT31;67829;51.968;5.684;2023-02-28T15:20:26;8.6;29.9
78536;SHT31;67829;51.968;5.684;2023-02-28T15:22:56;8.6;30.0
78536;SHT31;67829;51.968;5.684;2023-02-28T15:25:26;8.6;30.6
78536;SHT31;67829;51.968;5.684;2023-02-28T15:27:56;8.6;30.8
78536;SHT31;67829;51.968;5.684;2023-02-28T15:30:28;8.6;30.1
78536;SHT31;67829;51.968;5.684;2023-02-28T15:33:05;8.6;30.0
78536;SHT31;67829;51.968;5.684;2023-02-28T15:35:38;8.6;30.2
78536;SHT31;67829;51.968;5.684;2023-02-28T15:38:15;8.6;30.5
78536;SHT31;67829;51.968;5.684;2023-02-28T15:40:46;8.6;31.6
78536;SHT31;67829;51.968;5.684;2023-02-28T15:43:27;8.6;30.9
78536;SHT31;67829;51.968;5.684;2023-02-28T15:45:59;8.6;31.4
78536;SHT31;67829;51.968;5.684;2023-02-28T16:34:09;10.5;27.8
78536;SHT31;67829;51.968;5.684;2023-02-28T16:36:38;10.5;27.7
78536;SHT31;67829;51.968;5.684;2023-02-28T16:39:07;10.5;27.5
78536;SHT31;67829;51.968;5.684;2023-02-28T16:41:36;10.4;27.4
78536;SHT31;67829;51.968;5.684;2023-02-28T16:44:13;10.3;27.8
78536;SHT31;67829;51.968;5.684;2023-02-28T16:46:42;10.1;27.8
78536;SHT31;67829;51.968;5.684;2023-02-28T16:49:12;10.0;28.3
78536;SHT31;67829;51.968;5.684;2023-02-28T16:51:41;9.8;28.6
78536;SHT31;67829;51.968;5.684;2023-02-28T16:54:10;9.6;29.0
78536;SHT31;67829;51.968;5.684;2023-02-28T16:56:44;9.5;29.4
78536;SHT31;67829;51.968;5.684;2023-02-28T16:59:15;9.3;29.5
78536;SHT31;67829;51.968;5.684;2023-02-28T17:01:45;9.2;30.1
78536;SHT31;67829;51.968;5.684;2023-02-28T17:04:14;9.0;30.5
78536;SHT31;67829;51.968;5.684;2023-02-28T17:06:44;8.9;30.9
78536;SHT31;67829;51.968;5.684;2023-02-28T17:09:17;8.8;31.4
78536;SHT31;67829;51.968;5.684;2023-02-28T17:11:47;8.7;31.7
78536;SHT31;67829;51.968;5.684;2023-02-28T17:14:16;8.6;31.7
78536;SHT31;67829;51.968;5.684;2023-02-28T17:16:44;8.4;31.8
78536;SHT31;67829;51.968;5.684;2023-02-28T17:19:15;8.4;31.9
78536;SHT31;67829;51.968;5.684;2023-02-28T17:21:45;8.3;31.8
78536;SHT31;67829;51.968;5.684;2023-02-28T17:24:14;8.2;31.9
78536;SHT31;67829;51.968;5.684;2023-02-28T17:26:42;8.1;32.3
78536;SHT31;67829;51.968;5.684;2023-02-28T17:29:15;8.0;32.2
78536;SHT31;67829;51.968;5.684;2023-02-28T17:31:44;7.9;32.3
78536;SHT31;67829;51.968;5.684;2023-02-28T17:34:13;7.8;32.4
78536;SHT31;67829;51.968;5.684;2023-02-28T17:36:45;7.8;32.6
78536;SHT31;67829;51.968;5.684;2023-02-28T17:39:15;7.7;32.8
78536;SHT31;67829;51.968;5.684;2023-02-28T17:41:48;7.6;33.0
78536;SHT31;67829;51.968;5.684;2023-02-28T17:44:16;7.6;33.1
78536;SHT31;67829;51.968;5.684;2023-02-28T17:46:45;7.5;33.1
78536;SHT31;67829;51.968;5.684;2023-02-28T17:49:16;7.4;33.3
78536;SHT31;67829;51.968;5.684;2023-02-28T17:51:44;7.4;33.3
78536;SHT31;67829;51.968;5.684;2023-02-28T17:54:14;7.3;33.3
78536;SHT31;67829;51.968;5.684;2023-02-28T17:56:42;7.3;33.4
78536;SHT31;67829;51.968;5.684;2023-02-28T17:59:12;7.2;33.6